Time;durP1;ratioP1;P1;durP2;ratioP2;P2;SDS_P1;SDS_P2;PMS_P1;PMS_P2;Temp;Humidity;BMP_temperature;BMP_pressure;BME280_temperature;BME280_humidity;BME280_pressure;Samples;Min_cycle;Max_cycle;Signal;HPM_P1;HPM_P2
2021/05/15 00:00:27;;;;;;;16.13;5.50;;;;;;;;;;4929512;28;20047;-61
2021/05/15 00:02:54;;;;;;;14.15;5.55;;;;;;;;;;4943796;28;20137;-61
2021/05/15 00:05:20;;;;;;;16.02;5.82;;;;;;;;;;4941971;28;20040;-61
2021/05/15 00:07:46;;;;;;;11.43;5.57;;;;;;;;;;4927324;28;20047;-59
2021/05/15 00:10:12;;;;;;;14.23;5.43;;;;;;;;;;4931862;28;20107;-59
2021/05/15 00:12:39;;;;;;;13.55;5.25;;;;;;;;;;4941355;28;20063;-59
2021/05/15 00:15:06;;;;;;;14.07;5.70;;;;;;;;;;4929814;28;20062;-59
2021/05/15 00:17:32;;;;;;;16.13;6.05;;;;;;;;;;4925379;28;20043;-59
2021/05/15 00:19:58;;;;;;;13.38;5.43;;;;;;;;;;4928730;28;20148;-59
2021/05/15 00:22:25;;;;;;;16.73;6.22;;;;;;;;;;4947799;28;20063;-59
2021/05/15 00:24:51;;;;;;;10.55;5.80;;;;;;;;;;4925776;28;20051;-60
2021/05/15 00:27:17;;;;;;;14.85;5.85;;;;;;;;;;4929210;28;20062;-59
2021/05/15 00:29:43;;;;;;;16.30;5.75;;;;;;;;;;4926951;28;20066;-59
2021/05/15 00:32:09;;;;;;;15.75;6.32;;;;;;;;;;4931028;28;20066;-60
2021/05/15 00:34:35;;;;;;;14.38;6.43;;;;;;;;;;4939345;28;20039;-59
2021/05/15 00:37:01;;;;;;;13.65;5.32;;;;;;;;;;4945944;28;20055;-60
2021/05/15 00:39:27;;;;;;;14.15;5.93;;;;;;;;;;4926639;28;20054;-61
2021/05/15 00:41:53;;;;;;;12.18;5.55;;;;;;;;;;4930930;28;20063;-60
2021/05/15 00:44:30;;;;;;;11.27;5.57;;;;;;;;;;4943194;28;20101;-59
2021/05/15 00:46:56;;;;;;;13.70;6.07;;;;;;;;;;4929022;28;20177;-60
2021/05/15 00:49:22;;;;;;;15.65;6.07;;;;;;;;;;4926477;28;20039;-59
2021/05/15 00:51:49;;;;;;;14.93;6.30;;;;;;;;;;4930729;28;20062;-61
2021/05/15 00:54:15;;;;;;;11.38;5.60;;;;;;;;;;4945206;28;20050;-61
2021/05/15 00:56:42;;;;;;;13.15;5.28;;;;;;;;;;4928247;29;20039;-59
2021/05/15 00:59:09;;;;;;;12.40;5.78;;;;;;;;;;4924748;28;20044;-62
2021/05/15 01:01:35;;;;;;;13.38;6.18;;;;;;;;;;4930072;28;20050;-60
2021/05/15 01:04:02;;;;;;;15.25;6.25;;;;;;;;;;4931069;28;20036;-60
2021/05/15 01:06:28;;;;;;;16.02;6.15;;;;;;;;;;4924815;29;20134;-61
2021/05/15 01:08:54;;;;;;;13.73;5.82;;;;;;;;;;4945144;28;20055;-59
2021/05/15 01:11:20;;;;;;;13.05;6.22;;;;;;;;;;4929652;28;20050;-59
2021/05/15 01:13:51;;;;;;;16.35;6.45;;;;;;;;;;4929898;28;20078;-61
2021/05/15 01:16:17;;;;;;;14.65;6.00;;;;;;;;;;4926488;28;20071;-58
2021/05/15 01:18:43;;;;;;;16.77;6.35;;;;;;;;;;4927442;28;20052;-60
2021/05/15 01:21:10;;;;;;;13.55;5.95;;;;;;;;;;4943259;28;20066;-60
2021/05/15 01:23:36;;;;;;;13.48;6.00;;;;;;;;;;4932020;28;20046;-60
2021/05/15 01:26:11;;;;;;;14.48;5.78;;;;;;;;;;4927625;28;20091;-60
2021/05/15 01:28:37;;;;;;;15.77;6.25;;;;;;;;;;4927833;28;20084;-59
2021/05/15 01:31:03;;;;;;;12.68;5.55;;;;;;;;;;4924661;28;20079;-60
2021/05/15 01:33:29;;;;;;;12.50;5.93;;;;;;;;;;4940482;28;20066;-60
2021/05/15 01:35:55;;;;;;;12.60;5.75;;;;;;;;;;4941089;28;20032;-60
2021/05/15 01:38:22;;;;;;;13.05;6.03;;;;;;;;;;4928935;28;20129;-60
2021/05/15 01:40:48;;;;;;;14.73;6.15;;;;;;;;;;4925816;28;20048;-62
2021/05/15 01:43:17;;;;;;;14.68;6.57;;;;;;;;;;4940681;28;20047;-61
2021/05/15 01:45:43;;;;;;;14.00;6.47;;;;;;;;;;4927835;28;20086;-60
2021/05/15 01:48:14;;;;;;;15.57;6.43;;;;;;;;;;4911108;28;20055;-62
2021/05/15 01:50:40;;;;;;;14.45;6.10;;;;;;;;;;4928611;28;20129;-62
2021/05/15 01:53:06;;;;;;;18.52;6.10;;;;;;;;;;4926715;28;20084;-62
2021/05/15 01:55:33;;;;;;;17.60;6.38;;;;;;;;;;4928134;28;20051;-62
2021/05/15 01:57:59;;;;;;;14.68;6.15;;;;;;;;;;4924670;28;20052;-61
2021/05/15 02:00:25;;;;;;;15.45;6.25;;;;;;;;;;4928127;28;20054;-59
2021/05/15 02:02:51;;;;;;;12.93;5.88;;;;;;;;;;4925027;29;20047;-60
2021/05/15 02:05:17;;;;;;;14.80;6.05;;;;;;;;;;4927546;29;20039;-62
2021/05/15 02:07:43;;;;;;;15.05;6.13;;;;;;;;;;4924330;29;20058;-59
2021/05/15 02:10:09;;;;;;;14.50;6.18;;;;;;;;;;4926747;29;20054;-61
2021/05/15 02:12:37;;;;;;;15.50;6.57;;;;;;;;;;4924097;29;20134;-60
2021/05/15 02:15:04;;;;;;;20.05;6.75;;;;;;;;;;4927746;29;20079;-60
2021/05/15 02:17:30;;;;;;;11.95;6.15;;;;;;;;;;4922568;29;20148;-59
2021/05/15 02:19:56;;;;;;;14.95;6.10;;;;;;;;;;4927989;29;20039;-59
2021/05/15 02:22:22;;;;;;;15.38;6.63;;;;;;;;;;4942094;28;20043;-59
2021/05/15 02:24:50;;;;;;;13.48;6.57;;;;;;;;;;4927780;29;20112;-58
2021/05/15 02:27:16;;;;;;;19.80;7.05;;;;;;;;;;4927082;29;20040;-59
2021/05/15 02:29:42;;;;;;;19.85;6.78;;;;;;;;;;4923360;29;20059;-59
2021/05/15 02:32:08;;;;;;;14.00;7.18;;;;;;;;;;4941978;28;20040;-59
2021/05/15 02:34:34;;;;;;;18.15;7.35;;;;;;;;;;4921285;29;20054;-59
2021/05/15 02:37:00;;;;;;;15.85;6.57;;;;;;;;;;4925967;29;20054;-59
2021/05/15 02:39:26;;;;;;;14.48;6.10;;;;;;;;;;4925264;29;20047;-60
2021/05/15 02:41:52;;;;;;;18.35;7.10;;;;;;;;;;4927760;29;20056;-59
2021/05/15 02:44:18;;;;;;;15.50;6.68;;;;;;;;;;4923867;29;20059;-59
2021/05/15 02:46:45;;;;;;;13.95;6.72;;;;;;;;;;4927992;29;20036;-59
2021/05/15 02:49:13;;;;;;;14.38;6.90;;;;;;;;;;4923198;29;20051;-59
2021/05/15 02:51:39;;;;;;;17.23;7.03;;;;;;;;;;4927725;29;20118;-59
2021/05/15 02:54:05;;;;;;;16.65;7.38;;;;;;;;;;4913306;29;20048;-59
2021/05/15 02:56:33;;;;;;;18.75;7.15;;;;;;;;;;4930585;29;20159;-60
2021/05/15 02:58:59;;;;;;;18.88;7.18;;;;;;;;;;4925742;29;20051;-59
2021/05/15 03:01:25;;;;;;;17.40;7.53;;;;;;;;;;4942802;29;20136;-59
2021/05/15 03:03:52;;;;;;;17.70;6.82;;;;;;;;;;4925444;28;20069;-60
2021/05/15 03:06:18;;;;;;;15.18;7.57;;;;;;;;;;4927099;29;20356;-62
2021/05/15 03:08:44;;;;;;;17.52;7.72;;;;;;;;;;4925848;29;20031;-60
2021/05/15 03:11:10;;;;;;;16.20;7.18;;;;;;;;;;4913743;29;20104;-61
2021/05/15 03:13:36;;;;;;;13.20;6.88;;;;;;;;;;4924858;29;20052;-61
2021/05/15 03:16:02;;;;;;;19.17;7.22;;;;;;;;;;4920999;29;20051;-61
2021/05/15 03:18:28;;;;;;;20.02;7.15;;;;;;;;;;4927134;29;20062;-61
2021/05/15 03:20:56;;;;;;;15.32;7.22;;;;;;;;;;4923733;29;20059;-60
2021/05/15 03:23:24;;;;;;;16.85;7.45;;;;;;;;;;4947635;29;20050;-61
2021/05/15 03:25:50;;;;;;;15.38;7.70;;;;;;;;;;4925378;29;20035;-62
2021/05/15 03:28:16;;;;;;;18.55;8.10;;;;;;;;;;4929464;29;20229;-59
2021/05/15 03:30:42;;;;;;;16.55;7.82;;;;;;;;;;4926787;29;20071;-60
2021/05/15 03:33:08;;;;;;;17.80;8.70;;;;;;;;;;4928937;29;20054;-59
2021/05/15 03:35:34;;;;;;;20.67;7.93;;;;;;;;;;4926537;29;20047;-60
2021/05/15 03:38:01;;;;;;;16.40;7.40;;;;;;;;;;4929784;29;20043;-60
2021/05/15 03:40:27;;;;;;;17.38;7.85;;;;;;;;;;4925338;29;20048;-60
2021/05/15 03:42:56;;;;;;;18.25;7.65;;;;;;;;;;4929999;29;20080;-60
2021/05/15 03:45:22;;;;;;;;;;;;;;;;;;4929649;29;20054;-60
2021/05/15 03:47:47;;;;;;;16.48;6.72;;;;;;;;;;4925446;29;19927;-59
2021/05/15 03:50:14;;;;;;;21.88;8.50;;;;;;;;;;4947415;28;20122;-60
2021/05/15 03:52:40;;;;;;;17.17;8.00;;;;;;;;;;4925731;29;20043;-60
2021/05/15 03:55:08;;;;;;;16.88;7.78;;;;;;;;;;4931238;29;20043;-60
2021/05/15 03:57:34;;;;;;;19.47;7.83;;;;;;;;;;4926325;29;20058;-60
2021/05/15 04:00:02;;;;;;;19.40;7.75;;;;;;;;;;4929916;29;20043;-60
2021/05/15 04:02:30;;;;;;;17.90;7.53;;;;;;;;;;4926095;29;20054;-60
2021/05/15 04:04:57;;;;;;;18.67;8.52;;;;;;;;;;4928352;29;20043;-59
2021/05/15 04:07:23;;;;;;;23.77;8.63;;;;;;;;;;4942053;28;20051;-59
2021/05/15 04:09:49;;;;;;;16.42;7.53;;;;;;;;;;4929840;29;20043;-59
2021/05/15 04:12:16;;;;;;;18.25;7.90;;;;;;;;;;4924770;29;20035;-59
2021/05/15 04:14:45;;;;;;;19.42;8.35;;;;;;;;;;4928878;29;20047;-59
2021/05/15 04:17:20;;;;;;;20.27;8.32;;;;;;;;;;4926092;29;20047;-60
2021/05/15 04:19:46;;;;;;;15.63;7.68;;;;;;;;;;4930354;29;20354;-59
2021/05/15 04:22:13;;;;;;;17.08;8.55;;;;;;;;;;4926825;29;20043;-59
2021/05/15 04:24:39;;;;;;;19.27;7.78;;;;;;;;;;4930790;29;20043;-60
2021/05/15 04:27:05;;;;;;;17.48;8.45;;;;;;;;;;4929851;29;20213;-60
2021/05/15 04:29:33;;;;;;;21.02;7.60;;;;;;;;;;4930487;29;20115;-60
2021/05/15 04:32:01;;;;;;;22.23;8.63;;;;;;;;;;4931783;29;20039;-59
2021/05/15 04:34:29;;;;;;;15.45;7.60;;;;;;;;;;4926578;29;20039;-60
2021/05/15 04:36:55;;;;;;;18.97;7.73;;;;;;;;;;4928572;29;20044;-59
2021/05/15 04:39:24;;;;;;;16.10;8.27;;;;;;;;;;4926301;29;20301;-59
2021/05/15 04:41:49;;;;;;;16.92;7.82;;;;;;;;;;4925699;29;20067;-61
2021/05/15 04:44:16;;;;;;;17.40;7.70;;;;;;;;;;4924489;29;20035;-58
2021/05/15 04:46:42;;;;;;;16.98;8.35;;;;;;;;;;4927979;29;20055;-61
2021/05/15 04:49:08;;;;;;;22.10;8.65;;;;;;;;;;4924034;29;20109;-60
2021/05/15 04:51:34;;;;;;;18.95;8.73;;;;;;;;;;4927851;28;20062;-61
2021/05/15 04:54:03;;;;;;;17.30;7.50;;;;;;;;;;4923990;29;20055;-62
2021/05/15 04:56:29;;;;;;;18.42;8.40;;;;;;;;;;4927357;29;20166;-60
2021/05/15 04:58:55;;;;;;;19.17;8.05;;;;;;;;;;4924240;29;20088;-60
2021/05/15 05:01:21;;;;;;;16.50;7.82;;;;;;;;;;4927765;29;20114;-59
2021/05/15 05:03:48;;;;;;;18.00;8.23;;;;;;;;;;4924107;29;20048;-60
2021/05/15 05:06:14;;;;;;;16.83;7.95;;;;;;;;;;4927534;29;20055;-60
2021/05/15 05:08:40;;;;;;;16.98;8.48;;;;;;;;;;4927712;28;20072;-61
2021/05/15 05:11:06;;;;;;;19.23;8.23;;;;;;;;;;4925738;29;20058;-62
2021/05/15 05:13:32;;;;;;;21.92;8.05;;;;;;;;;;4927378;29;20047;-60
2021/05/15 05:15:58;;;;;;;20.80;8.30;;;;;;;;;;4924951;29;20036;-62
2021/05/15 05:18:24;;;;;;;19.20;8.95;;;;;;;;;;4927588;28;20067;-60
2021/05/15 05:20:56;;;;;;;21.40;9.38;;;;;;;;;;4925654;29;20042;-60
2021/05/15 05:23:22;;;;;;;21.35;9.82;;;;;;;;;;4929032;29;20110;-59
2021/05/15 05:25:48;;;;;;;20.10;9.52;;;;;;;;;;4925331;29;20043;-60
2021/05/15 05:28:16;;;;;;;20.25;10.15;;;;;;;;;;4946796;28;20048;-61
2021/05/15 05:30:42;;;;;;;21.60;11.03;;;;;;;;;;4925921;29;20076;-61
2021/05/15 05:33:08;;;;;;;20.40;9.77;;;;;;;;;;4945342;28;20043;-60
2021/05/15 05:35:35;;;;;;;23.70;10.52;;;;;;;;;;4925866;29;20047;-60
2021/05/15 05:38:02;;;;;;;19.92;9.07;;;;;;;;;;4945406;29;20043;-60
2021/05/15 05:40:28;;;;;;;19.38;8.73;;;;;;;;;;4941935;29;20039;-60
2021/05/15 05:42:54;;;;;;;26.60;10.50;;;;;;;;;;4928845;29;20114;-62
2021/05/15 05:45:20;;;;;;;22.10;10.43;;;;;;;;;;4924456;28;20047;-62
2021/05/15 05:47:46;;;;;;;24.65;11.00;;;;;;;;;;4928878;29;20055;-60
2021/05/15 05:50:12;;;;;;;21.10;10.63;;;;;;;;;;4936498;29;20051;-61
2021/05/15 05:52:39;;;;;;;22.90;11.00;;;;;;;;;;4932424;29;20075;-59
2021/05/15 05:55:07;;;;;;;25.50;11.63;;;;;;;;;;4927206;29;20032;-60
2021/05/15 05:57:34;;;;;;;27.08;11.98;;;;;;;;;;4923050;29;20113;-60
2021/05/15 06:00:00;;;;;;;32.05;13.35;;;;;;;;;;4930633;29;20028;-59
2021/05/15 06:02:26;;;;;;;26.92;12.88;;;;;;;;;;4925640;28;20135;-61
2021/05/15 06:04:52;;;;;;;29.95;12.55;;;;;;;;;;4945240;28;20055;-59
2021/05/15 06:07:18;;;;;;;25.55;12.00;;;;;;;;;;4926282;28;20036;-60
2021/05/15 06:09:45;;;;;;;30.27;11.90;;;;;;;;;;4947137;28;20059;-60
2021/05/15 06:12:14;;;;;;;28.00;11.88;;;;;;;;;;4940232;28;20229;-60
2021/05/15 06:14:40;;;;;;;25.42;12.43;;;;;;;;;;4940548;28;20066;-62
2021/05/15 06:17:06;;;;;;;26.25;12.00;;;;;;;;;;4938863;28;20092;-62
2021/05/15 06:19:33;;;;;;;34.67;14.48;;;;;;;;;;4929121;28;20039;-60
2021/05/15 06:21:59;;;;;;;29.98;13.43;;;;;;;;;;4925041;28;20138;-63
2021/05/15 06:24:25;;;;;;;34.47;15.57;;;;;;;;;;4942070;28;20056;-62
2021/05/15 06:26:51;;;;;;;31.02;14.32;;;;;;;;;;4937505;28;20051;-60
2021/05/15 06:29:18;;;;;;;35.25;13.85;;;;;;;;;;4928887;28;20043;-61
2021/05/15 06:31:44;;;;;;;34.30;14.52;;;;;;;;;;4944696;28;20051;-60
2021/05/15 06:34:11;;;;;;;39.90;15.73;;;;;;;;;;4925190;28;20039;-60
2021/05/15 06:36:37;;;;;;;40.60;15.63;;;;;;;;;;4927212;28;20035;-60
2021/05/15 06:39:03;;;;;;;39.08;15.65;;;;;;;;;;4941728;28;20066;-60
2021/05/15 06:41:29;;;;;;;36.90;16.02;;;;;;;;;;4928407;28;20114;-61
2021/05/15 06:43:55;;;;;;;36.17;14.70;;;;;;;;;;4938414;28;20039;-63
2021/05/15 06:46:22;;;;;;;35.33;13.43;;;;;;;;;;4945088;28;20039;-60
2021/05/15 06:48:48;;;;;;;32.97;13.98;;;;;;;;;;4924710;28;20043;-60
2021/05/15 06:51:18;;;;;;;35.47;14.20;;;;;;;;;;4929142;28;20044;-60
2021/05/15 06:53:44;;;;;;;31.67;13.32;;;;;;;;;;4924693;28;20051;-60
2021/05/15 06:56:10;;;;;;;30.23;13.65;;;;;;;;;;4943350;28;20054;-61
2021/05/15 06:58:36;;;;;;;28.67;12.82;;;;;;;;;;4940035;28;20035;-60
2021/05/15 07:01:01;;;;;;;33.72;14.57;;;;;;;;;;4942460;28;20043;-61
2021/05/15 07:03:29;;;;;;;35.50;14.10;;;;;;;;;;4924998;28;20055;-60
2021/05/15 07:05:55;;;;;;;32.00;14.88;;;;;;;;;;4925324;29;20079;-59
2021/05/15 07:08:21;;;;;;;31.42;15.30;;;;;;;;;;4943527;28;20055;-58
2021/05/15 07:10:47;;;;;;;38.28;16.95;;;;;;;;;;4926999;29;20082;-59
2021/05/15 07:13:14;;;;;;;34.78;14.65;;;;;;;;;;4942637;28;20144;-58
2021/05/15 07:15:39;;;;;;;30.48;13.32;;;;;;;;;;4942152;28;20058;-58
2021/05/15 07:18:05;;;;;;;34.30;13.80;;;;;;;;;;4927853;28;20035;-59
2021/05/15 07:20:32;;;;;;;32.72;13.50;;;;;;;;;;4924914;28;20068;-59
2021/05/15 07:23:00;;;;;;;30.25;13.85;;;;;;;;;;4928523;28;20032;-59
2021/05/15 07:25:26;;;;;;;27.43;13.40;;;;;;;;;;4924551;28;20102;-59
2021/05/15 07:27:52;;;;;;;36.20;14.82;;;;;;;;;;4927653;28;20075;-62
2021/05/15 07:30:19;;;;;;;29.17;13.48;;;;;;;;;;4933068;28;20106;-60
2021/05/15 07:32:48;;;;;;;32.38;13.88;;;;;;;;;;4942475;28;20036;-61
2021/05/15 07:35:14;;;;;;;32.90;14.02;;;;;;;;;;4945722;28;20059;-60
2021/05/15 07:37:41;;;;;;;38.25;14.90;;;;;;;;;;4928684;28;20126;-59
2021/05/15 07:40:08;;;;;;;32.47;13.35;;;;;;;;;;4923342;28;20052;-59
2021/05/15 07:42:34;;;;;;;32.90;14.38;;;;;;;;;;4926706;28;20091;-60
2021/05/15 07:45:00;;;;;;;32.38;13.88;;;;;;;;;;4939951;28;20118;-59
2021/05/15 07:47:29;;;;;;;30.67;14.02;;;;;;;;;;4926625;28;20082;-62
2021/05/15 07:49:55;;;;;;;34.88;13.98;;;;;;;;;;4943641;28;20047;-62
2021/05/15 07:52:21;;;;;;;25.73;13.43;;;;;;;;;;4924596;28;20080;-60
2021/05/15 07:54:48;;;;;;;32.92;15.35;;;;;;;;;;4927308;29;20047;-60
2021/05/15 07:57:14;;;;;;;30.15;12.45;;;;;;;;;;4934301;28;20080;-60
2021/05/15 07:59:40;;;;;;;34.67;14.23;;;;;;;;;;4925969;28;20105;-59
2021/05/15 08:02:06;;;;;;;30.13;12.23;;;;;;;;;;4934809;29;20054;-61
2021/05/15 08:04:32;;;;;;;28.15;13.10;;;;;;;;;;4925765;29;20359;-59
2021/05/15 08:06:58;;;;;;;26.65;12.35;;;;;;;;;;4923518;29;20054;-60
2021/05/15 08:09:24;;;;;;;31.40;11.85;;;;;;;;;;4947137;28;20485;-60
2021/05/15 08:11:51;;;;;;;31.42;13.73;;;;;;;;;;4925177;29;20091;-59
2021/05/15 08:14:17;;;;;;;38.45;13.38;;;;;;;;;;4930215;29;20054;-60
2021/05/15 08:16:43;;;;;;;40.28;14.02;;;;;;;;;;4925305;29;20051;-59
2021/05/15 08:19:09;;;;;;;31.15;12.65;;;;;;;;;;4927232;29;20027;-59
2021/05/15 08:21:35;;;;;;;30.73;13.38;;;;;;;;;;4926948;29;20046;-59
2021/05/15 08:24:01;;;;;;;32.80;13.93;;;;;;;;;;4945742;29;20047;-59
2021/05/15 08:26:28;;;;;;;34.72;16.00;;;;;;;;;;4926636;29;20060;-59
2021/05/15 08:28:55;;;;;;;34.53;14.68;;;;;;;;;;4910042;29;20054;-59
2021/05/15 08:31:21;;;;;;;32.97;14.05;;;;;;;;;;4926782;29;20048;-60
2021/05/15 08:33:48;;;;;;;37.15;15.45;;;;;;;;;;4941413;29;20032;-61
2021/05/15 08:36:14;;;;;;;36.58;13.38;;;;;;;;;;4946289;29;20054;-59
2021/05/15 08:38:41;;;;;;;34.65;12.02;;;;;;;;;;4934700;29;20079;-62
2021/05/15 08:41:07;;;;;;;30.70;13.80;;;;;;;;;;4928811;29;20047;-59
2021/05/15 08:43:35;;;;;;;32.15;13.57;;;;;;;;;;4924703;29;20036;-60
2021/05/15 08:46:02;;;;;;;26.63;11.88;;;;;;;;;;4929804;29;20043;-58
2021/05/15 08:48:30;;;;;;;25.88;12.02;;;;;;;;;;4925421;29;20043;-59
2021/05/15 08:50:57;;;;;;;37.40;14.55;;;;;;;;;;4928786;29;20113;-60
2021/05/15 08:53:24;;;;;;;40.88;13.40;;;;;;;;;;4925990;29;20059;-59
2021/05/15 08:55:50;;;;;;;39.20;13.98;;;;;;;;;;4943213;28;20079;-60
2021/05/15 08:58:16;;;;;;;34.90;12.75;;;;;;;;;;4924646;28;20051;-61
2021/05/15 09:00:42;;;;;;;35.05;11.80;;;;;;;;;;4942639;29;20054;-61
2021/05/15 09:03:14;;;;;;;29.45;12.80;;;;;;;;;;4925749;29;20042;-59
2021/05/15 09:05:41;;;;;;;32.50;12.50;;;;;;;;;;4929483;29;20039;-62
2021/05/15 09:08:09;;;;;;;31.35;12.52;;;;;;;;;;4941240;28;20043;-58
2021/05/15 09:10:36;;;;;;;26.33;11.07;;;;;;;;;;4927161;28;20058;-59
2021/05/15 09:13:06;;;;;;;21.20;10.20;;;;;;;;;;4928363;28;20278;-61
2021/05/15 09:15:35;;;;;;;20.15;9.38;;;;;;;;;;4925395;28;20051;-59
2021/05/15 09:18:01;;;;;;;25.45;11.50;;;;;;;;;;4944645;28;20055;-61
2021/05/15 09:20:29;;;;;;;24.02;11.80;;;;;;;;;;4940982;28;20066;-58
2021/05/15 09:22:56;;;;;;;23.67;10.82;;;;;;;;;;4929047;29;20134;-59
2021/05/15 09:25:22;;;;;;;26.45;11.55;;;;;;;;;;4924629;29;20047;-61
2021/05/15 09:27:48;;;;;;;28.25;11.50;;;;;;;;;;4928871;29;20048;-58
2021/05/15 09:30:15;;;;;;;28.83;11.80;;;;;;;;;;4942467;29;20092;-59
2021/05/15 09:32:42;;;;;;;24.92;10.88;;;;;;;;;;4927106;29;20039;-59
2021/05/15 09:35:09;;;;;;;24.27;10.57;;;;;;;;;;4924011;29;20047;-59
2021/05/15 09:37:36;;;;;;;24.48;11.20;;;;;;;;;;4928425;28;20055;-59
2021/05/15 09:40:13;;;;;;;22.95;10.85;;;;;;;;;;4925263;29;20062;-59
2021/05/15 09:42:50;;;;;;;23.27;11.40;;;;;;;;;;4927794;29;20051;-58
2021/05/15 09:45:17;;;;;;;24.88;11.23;;;;;;;;;;4921862;29;20131;-58
2021/05/15 09:47:50;;;;;;;25.98;12.05;;;;;;;;;;4925526;29;20043;-59
2021/05/15 09:50:18;;;;;;;23.52;11.68;;;;;;;;;;4923395;28;20040;-59
2021/05/15 09:52:45;;;;;;;27.02;11.88;;;;;;;;;;4910002;29;20080;-58
2021/05/15 09:55:11;;;;;;;24.67;12.40;;;;;;;;;;4908125;29;20774;-59
2021/05/15 09:57:37;;;;;;;26.92;11.45;;;;;;;;;;4927922;29;20051;-58
2021/05/15 10:00:10;;;;;;;25.45;12.63;;;;;;;;;;4926545;29;20116;-61
2021/05/15 10:02:36;;;;;;;27.55;12.50;;;;;;;;;;4909777;29;20107;-60
2021/05/15 10:05:09;;;;;;;29.52;13.70;;;;;;;;;;4924620;29;20064;-59
2021/05/15 10:07:37;;;;;;;27.58;13.77;;;;;;;;;;4939010;29;20052;-58
2021/05/15 10:10:06;;;;;;;29.55;13.90;;;;;;;;;;4928272;29;20064;-60
2021/05/15 10:12:34;;;;;;;26.98;13.20;;;;;;;;;;4923611;29;20057;-59
2021/05/15 10:15:00;;;;;;;21.17;11.25;;;;;;;;;;4927123;29;20047;-59
2021/05/15 10:17:26;;;;;;;24.52;12.73;;;;;;;;;;4924792;29;20043;-58
2021/05/15 10:19:52;;;;;;;28.77;12.82;;;;;;;;;;4927200;28;20381;-58
2021/05/15 10:22:18;;;;;;;38.30;12.18;;;;;;;;;;4924474;29;20062;-60
2021/05/15 10:24:46;;;;;;;29.40;13.00;;;;;;;;;;4926695;29;20047;-60
2021/05/15 10:27:13;;;;;;;26.75;13.05;;;;;;;;;;4916628;29;20047;-60
2021/05/15 10:29:40;;;;;;;25.08;12.45;;;;;;;;;;4927716;29;20160;-60
2021/05/15 10:32:09;;;;;;;25.75;10.82;;;;;;;;;;4922956;29;20043;-61
2021/05/15 10:34:35;;;;;;;23.52;11.35;;;;;;;;;;4930568;29;20079;-59
2021/05/15 10:37:01;;;;;;;30.17;10.95;;;;;;;;;;4927296;29;20075;-61
2021/05/15 10:39:30;;;;;;;27.25;12.07;;;;;;;;;;4932155;29;20035;-59
2021/05/15 10:41:56;;;;;;;26.15;13.10;;;;;;;;;;4925330;29;20047;-59
2021/05/15 10:44:27;;;;;;;24.20;12.02;;;;;;;;;;4926803;29;20051;-61
2021/05/15 10:46:53;;;;;;;30.33;13.38;;;;;;;;;;4927606;29;20059;-59
2021/05/15 10:49:21;;;;;;;26.50;12.95;;;;;;;;;;4923628;29;20050;-60
2021/05/15 10:51:48;;;;;;;32.40;12.90;;;;;;;;;;4927988;29;20055;-61
2021/05/15 10:54:15;;;;;;;22.17;11.55;;;;;;;;;;4924590;29;20055;-59
2021/05/15 10:56:42;;;;;;;29.73;11.80;;;;;;;;;;4924536;29;20039;-62
2021/05/15 10:59:08;;;;;;;28.15;12.40;;;;;;;;;;4922321;29;20046;-60
2021/05/15 11:01:52;;;;;;;32.58;11.93;;;;;;;;;;4925941;28;20044;-61
2021/05/15 11:04:22;;;;;;;27.08;13.93;;;;;;;;;;4923849;29;20076;-72
2021/05/15 11:40:24;;;;;;;25.38;11.70;;;;;;;;;;4919747;29;20098;-62
2021/05/15 11:42:55;;;;;;;22.95;11.27;;;;;;;;;;4906812;29;20048;-60
2021/05/15 11:45:24;;;;;;;23.60;10.20;;;;;;;;;;4908703;29;20040;-60
2021/05/15 11:47:50;;;;;;;23.10;11.25;;;;;;;;;;4907318;29;20044;-59
2021/05/15 11:50:16;;;;;;;9.90;4.53;;;;;;;;;;4909202;29;20052;-60
2021/05/15 11:52:42;;;;;;;15.40;2.90;;;;;;;;;;4906615;29;20065;-60
2021/05/15 11:55:09;;;;;;;11.02;1.92;;;;;;;;;;4911150;29;20036;-59
2021/05/15 11:57:36;;;;;;;2.88;1.10;;;;;;;;;;4922974;29;20059;-61
2021/05/15 12:00:09;;;;;;;1.35;0.70;;;;;;;;;;4910268;29;20040;-59
2021/05/15 12:02:41;;;;;;;3.58;1.23;;;;;;;;;;4907392;29;20031;-59
2021/05/15 12:05:13;;;;;;;2.05;1.00;;;;;;;;;;4910560;29;20176;-59
2021/05/15 12:07:43;;;;;;;2.28;1.05;;;;;;;;;;4889936;29;20033;-59
2021/05/15 12:10:11;;;;;;;2.10;1.00;;;;;;;;;;4903081;29;20054;-59
2021/05/15 12:12:39;;;;;;;3.30;0.85;;;;;;;;;;4909946;29;20100;-59
2021/05/15 12:15:05;;;;;;;2.38;1.08;;;;;;;;;;4924834;29;20119;-59
2021/05/15 12:17:31;;;;;;;3.33;1.17;;;;;;;;;;4910031;29;20044;-59
2021/05/15 12:19:58;;;;;;;2.63;1.13;;;;;;;;;;4905915;29;20090;-59
2021/05/15 12:22:25;;;;;;;6.15;1.13;;;;;;;;;;4910618;29;20055;-60
2021/05/15 12:24:51;;;;;;;3.47;1.00;;;;;;;;;;4907759;29;20088;-60
2021/05/15 12:27:18;;;;;;;3.90;1.25;;;;;;;;;;4907943;29;20067;-62
2021/05/15 12:29:45;;;;;;;2.13;1.10;;;;;;;;;;4915766;29;20039;-60
2021/05/15 12:32:13;;;;;;;2.03;0.93;;;;;;;;;;4910227;29;20131;-60
2021/05/15 12:34:40;;;;;;;2.10;0.98;;;;;;;;;;4923778;29;20059;-59
2021/05/15 12:37:13;;;;;;;3.55;1.05;;;;;;;;;;4910567;29;20055;-62
2021/05/15 12:39:39;;;;;;;2.78;0.90;;;;;;;;;;4896993;29;20072;-63
2021/05/15 12:42:05;;;;;;;2.88;1.10;;;;;;;;;;4942103;29;20122;-61
2021/05/15 12:44:38;;;;;;;6.55;1.10;;;;;;;;;;4925167;29;20358;-61
2021/05/15 12:47:04;;;;;;;3.95;0.80;;;;;;;;;;4929302;29;20150;-60
2021/05/15 12:49:34;;;;;;;2.67;1.10;;;;;;;;;;4925280;29;20032;-63
2021/05/15 12:52:11;;;;;;;1.77;0.98;;;;;;;;;;4927596;29;20054;-60
2021/05/15 12:54:36;;;;;;;5.93;1.10;;;;;;;;;;4918732;29;20052;-61
2021/05/15 12:57:08;;;;;;;3.95;1.35;;;;;;;;;;4926203;29;20047;-61
2021/05/15 12:59:37;;;;;;;3.95;1.60;;;;;;;;;;4928196;29;20486;-61
2021/05/15 13:02:14;;;;;;;4.45;1.60;;;;;;;;;;4924931;29;20059;-63
2021/05/15 13:04:41;;;;;;;3.22;1.40;;;;;;;;;;4928883;29;20115;-63
2021/05/15 13:07:07;;;;;;;4.57;1.50;;;;;;;;;;4924851;29;20107;-60
2021/05/15 13:09:33;;;;;;;3.45;1.70;;;;;;;;;;4945731;29;20039;-61
2021/05/15 13:11:59;;;;;;;4.70;2.47;;;;;;;;;;4925221;29;20047;-60
2021/05/15 13:14:25;;;;;;;4.53;1.80;;;;;;;;;;4926122;29;20050;-59
2021/05/15 13:16:52;;;;;;;5.07;1.40;;;;;;;;;;4923597;29;20048;-60
2021/05/15 13:19:20;;;;;;;6.03;1.75;;;;;;;;;;4927609;29;20042;-59
2021/05/15 13:21:46;;;;;;;5.10;1.92;;;;;;;;;;4927326;29;20062;-60
2021/05/15 13:24:12;;;;;;;3.90;1.90;;;;;;;;;;4926548;29;20054;-62
2021/05/15 13:26:38;;;;;;;6.32;2.10;;;;;;;;;;4933819;29;20039;-61
2021/05/15 13:29:06;;;;;;;11.68;2.25;;;;;;;;;;4926991;29;20118;-60
2021/05/15 13:31:32;;;;;;;;;;;;;;;;;;4923994;29;20064;-66
2021/05/15 13:33:58;;;;;;;6.13;1.92;;;;;;;;;;4943348;29;19918;-61
2021/05/15 13:36:25;;;;;;;7.32;1.90;;;;;;;;;;4923377;29;20087;-60
2021/05/15 13:38:51;;;;;;;6.57;2.58;;;;;;;;;;4926666;29;20043;-61
2021/05/15 13:41:17;;;;;;;5.68;2.40;;;;;;;;;;4946590;29;20075;-63
2021/05/15 13:43:43;;;;;;;6.53;2.40;;;;;;;;;;4925651;28;20047;-65
2021/05/15 13:46:09;;;;;;;11.25;3.58;;;;;;;;;;4926217;29;20114;-59
2021/05/15 13:48:35;;;;;;;25.17;2.65;;;;;;;;;;4925529;29;20044;-60
2021/05/15 13:51:02;;;;;;;67.72;4.50;;;;;;;;;;4928242;29;20055;-61
2021/05/15 13:53:31;;;;;;;13.68;2.53;;;;;;;;;;4942236;29;20095;-60
2021/05/15 13:55:57;;;;;;;9.38;2.85;;;;;;;;;;4928827;29;20043;-59
2021/05/15 13:58:23;;;;;;;13.15;3.10;;;;;;;;;;4924053;29;20167;-59
2021/05/15 14:00:51;;;;;;;7.22;2.63;;;;;;;;;;4920981;29;20059;-71
2021/05/15 14:03:20;;;;;;;5.45;2.60;;;;;;;;;;4922418;29;20099;-60
2021/05/15 14:05:46;;;;;;;6.65;2.50;;;;;;;;;;4921899;28;20489;-59
2021/05/15 14:08:12;;;;;;;5.35;2.40;;;;;;;;;;4925874;28;20222;-59
2021/05/15 14:10:39;;;;;;;4.20;1.90;;;;;;;;;;4925832;29;20047;-60
2021/05/15 14:13:05;;;;;;;6.60;2.47;;;;;;;;;;4938100;28;20138;-61
2021/05/15 14:15:31;;;;;;;8.07;2.03;;;;;;;;;;4925082;28;20036;-61
2021/05/15 14:17:57;;;;;;;3.53;1.27;;;;;;;;;;4924091;28;20031;-60
2021/05/15 14:20:23;;;;;;;7.53;1.10;;;;;;;;;;4927789;28;20059;-60
2021/05/15 14:22:49;;;;;;;2.75;0.73;;;;;;;;;;4922968;28;20046;-61
2021/05/15 14:25:15;;;;;;;1.13;0.77;;;;;;;;;;4919107;28;20035;-57
2021/05/15 14:27:42;;;;;;;2.38;0.60;;;;;;;;;;4923653;28;20063;-59
2021/05/15 14:30:09;;;;;;;4.70;1.27;;;;;;;;;;4938872;28;20070;-57
2021/05/15 14:32:35;;;;;;;1.60;0.77;;;;;;;;;;4924507;28;20043;-59
2021/05/15 14:35:02;;;;;;;4.43;0.70;;;;;;;;;;4920132;28;20044;-59
2021/05/15 14:37:28;;;;;;;0.50;0.50;;;;;;;;;;4924210;28;20042;-60
2021/05/15 14:39:54;;;;;;;3.00;0.85;;;;;;;;;;4925124;28;20051;-59
2021/05/15 14:42:20;;;;;;;3.05;1.20;;;;;;;;;;4943946;28;20051;-59
2021/05/15 14:44:47;;;;;;;1.38;0.85;;;;;;;;;;4932305;28;20069;-60
2021/05/15 14:47:13;;;;;;;2.15;0.95;;;;;;;;;;4926432;29;20061;-59
2021/05/15 14:49:42;;;;;;;1.35;0.80;;;;;;;;;;4922930;28;20046;-59
2021/05/15 14:52:08;;;;;;;2.08;1.02;;;;;;;;;;4926852;28;20105;-59
2021/05/15 14:54:34;;;;;;;2.67;1.02;;;;;;;;;;4921739;28;20047;-59
2021/05/15 14:57:00;;;;;;;1.95;0.80;;;;;;;;;;4946837;28;20054;-59
2021/05/15 14:59:26;;;;;;;1.27;0.73;;;;;;;;;;4943704;28;20044;-59